Time;durP1;ratioP1;P1;durP2;ratioP2;P2;SDS_P1;SDS_P2;PMS_P1;PMS_P2;Temp;Humidity;BMP_temperature;BMP_pressure;BME280_temperature;BME280_humidity;BME280_pressure;Samples;Min_cycle;Max_cycle;Signal;HPM_P1;HPM_P2
2022/05/10 00:00:05;;;;;;;9.05;6.88;;;;;;;25.41;36.95;100040.75;343502;28;1017;-69
2022/05/10 00:00:20;;;;;;;8.90;6.63;;;;;;;25.42;36.51;100034.47;343766;28;1100;-69
2022/05/10 00:00:32;;;;;;;11.13;6.85;;;;;;;25.45;36.39;100038.69;343445;28;1352;-69
2022/05/10 00:00:45;;;;;;;11.73;7.15;;;;;;;25.47;36.45;100039.38;343791;28;1031;-69
2022/05/10 00:00:58;;;;;;;9.25;7.07;;;;;;;25.44;36.54;100043.16;344151;28;1812;-70
2022/05/10 00:01:22;;;;;;;8.45;6.90;;;;;;;25.44;36.79;100040.50;343606;28;2019;-69
2022/05/10 00:01:37;;;;;;;8.95;7.18;;;;;;;25.40;36.83;100036.44;343481;28;1574;-71
2022/05/10 00:01:49;;;;;;;11.80;7.40;;;;;;;25.41;36.54;100038.09;343568;28;1181;-70
2022/05/10 00:02:02;;;;;;;12.45;7.63;;;;;;;25.43;36.39;100043.28;342762;28;1933;-70
2022/05/10 00:02:16;;;;;;;9.88;7.80;;;;;;;25.46;36.32;100038.56;343631;28;2076;-70
2022/05/10 00:02:32;;;;;;;9.15;7.80;;;;;;;25.47;36.20;100037.59;343569;28;1406;-71
2022/05/10 00:02:50;;;;;;;7.85;7.05;;;;;;;25.48;36.01;100036.59;343520;28;1059;-70
2022/05/10 00:03:04;;;;;;;7.80;6.65;;;;;;;25.48;35.97;100035.75;343017;28;2305;-69
2022/05/10 00:03:18;;;;;;;9.18;6.80;;;;;;;25.47;36.06;100037.59;343519;28;2031;-69
2022/05/10 00:03:37;;;;;;;8.77;7.05;;;;;;;25.45;35.94;100036.84;344369;28;1092;-69
2022/05/10 00:03:49;;;;;;;7.78;6.95;;;;;;;25.43;36.06;100033.47;345150;28;1270;-70
2022/05/10 00:04:03;;;;;;;8.13;6.72;;;;;;;25.44;36.07;100040.50;343813;28;2209;-70
2022/05/10 00:04:16;;;;;;;8.05;6.80;;;;;;;25.43;36.20;100038.81;343444;28;2046;-70
2022/05/10 00:04:28;;;;;;;7.85;7.05;;;;;;;25.43;36.20;100033.47;343488;28;1315;-70
2022/05/10 00:04:43;;;;;;;8.82;7.25;;;;;;;25.43;36.05;100038.81;342580;28;1114;-70
2022/05/10 00:04:56;;;;;;;9.05;7.00;;;;;;;25.45;36.15;100036.84;342987;28;1892;-69
2022/05/10 00:05:09;;;;;;;9.18;6.80;;;;;;;25.44;36.28;100035.19;343519;28;1841;-69
2022/05/10 00:05:41;;;;;;;8.68;6.88;;;;;;;25.45;36.29;100036.84;342447;28;1090;-70
2022/05/10 00:05:53;;;;;;;8.90;7.38;;;;;;;25.40;36.28;100033.78;342108;28;866;-70
2022/05/10 00:06:07;;;;;;;9.18;7.05;;;;;;;25.36;36.60;100039.50;342266;28;1470;-70
2022/05/10 00:06:19;;;;;;;8.15;6.78;;;;;;;25.36;36.60;100037.69;343412;28;1349;-72
2022/05/10 00:06:40;;;;;;;7.88;7.00;;;;;;;25.36;36.26;100035.03;343738;28;1278;-71
2022/05/10 00:06:53;;;;;;;8.13;7.30;;;;;;;25.38;36.35;100034.91;343983;28;1149;-69
2022/05/10 00:07:06;;;;;;;8.38;6.97;;;;;;;25.39;36.27;100034.72;343450;28;1812;-69
2022/05/10 00:07:21;;;;;;;8.00;6.65;;;;;;;25.41;36.42;100035.44;343705;28;1075;-70
2022/05/10 00:07:35;;;;;;;7.38;6.60;;;;;;;25.42;36.09;100034.47;343486;28;1313;-71
2022/05/10 00:07:49;;;;;;;8.10;7.03;;;;;;;25.43;36.00;100037.97;342112;28;1372;-71
2022/05/10 00:08:05;;;;;;;8.88;7.28;;;;;;;25.43;36.18;100035.31;342258;28;888;-69
2022/05/10 00:08:18;;;;;;;8.30;6.88;;;;;;;25.42;36.04;100036.31;343044;28;1136;-69
2022/05/10 00:08:30;;;;;;;8.27;6.85;;;;;;;25.41;35.91;100038.09;344451;28;1303;-71
2022/05/10 00:08:43;;;;;;;7.50;6.65;;;;;;;25.42;36.27;100031.81;345072;28;1275;-70
2022/05/10 00:08:55;;;;;;;7.00;6.30;;;;;;;25.45;36.08;100036.00;343749;28;1851;-71
2022/05/10 00:09:09;;;;;;;7.03;6.32;;;;;;;25.44;36.06;100035.19;342910;28;2051;-71
2022/05/10 00:09:27;;;;;;;7.90;6.50;;;;;;;25.39;36.46;100040.06;343587;28;1059;-70
2022/05/10 00:09:39;;;;;;;8.38;7.10;;;;;;;25.36;36.56;100031.53;343080;28;1876;-71
2022/05/10 00:09:52;;;;;;;8.10;7.30;;;;;;;25.38;36.35;100033.06;341960;28;1031;-70
2022/05/10 00:10:08;;;;;;;7.93;6.97;;;;;;;25.36;36.23;100031.53;343038;28;1811;-69
2022/05/10 00:10:22;;;;;;;8.07;6.85;;;;;;;25.36;36.22;100032.38;343573;28;1348;-70
2022/05/10 00:10:35;;;;;;;8.77;6.85;;;;;;;25.38;36.11;100030.41;343513;28;1393;-69
2022/05/10 00:10:47;;;;;;;9.50;6.80;;;;;;;25.37;36.09;100034.03;342696;28;2332;-69
2022/05/10 00:11:00;;;;;;;9.30;7.10;;;;;;;25.37;36.15;100028.72;343067;28;1891;-69
2022/05/10 00:11:13;;;;;;;8.82;7.13;;;;;;;25.38;36.01;100027.75;343844;28;2118;-69
2022/05/10 00:11:25;;;;;;;8.43;7.13;;;;;;;25.38;36.48;100030.41;344183;28;1288;-72
2022/05/10 00:11:37;;;;;;;8.27;6.95;;;;;;;25.39;36.29;100029.41;342309;28;3174;-71
2022/05/10 00:11:49;;;;;;;9.25;7.20;;;;;;;25.40;36.16;100027.63;342259;28;1317;-71
2022/05/10 00:12:02;;;;;;;9.45;7.30;;;;;;;25.40;36.06;100027.63;342412;28;1830;-72
2022/05/10 00:12:14;;;;;;;9.70;7.10;;;;;;;25.39;36.50;100032.06;343454;28;2041;-71
2022/05/10 00:12:27;;;;;;;11.13;7.25;;;;;;;25.35;36.64;100035.97;343590;28;1268;-69
2022/05/10 00:12:39;;;;;;;10.13;7.30;;;;;;;25.38;36.46;100030.41;343571;28;1051;-69
2022/05/10 00:12:52;;;;;;;8.43;7.47;;;;;;;25.30;36.70;100031.06;343355;28;2142;-69
2022/05/10 00:13:05;;;;;;;9.05;7.20;;;;;;;25.26;36.85;100026.19;342716;28;1822;-69
2022/05/10 00:13:17;;;;;;;8.35;6.90;;;;;;;25.28;36.55;100029.53;343282;28;2083;-69
2022/05/10 00:13:29;;;;;;;7.82;6.97;;;;;;;25.26;36.69;100032.31;344095;28;1362;-69
2022/05/10 00:13:41;;;;;;;8.75;7.10;;;;;;;25.25;36.86;100025.34;344855;28;1070;-69
2022/05/10 00:13:53;;;;;;;10.48;7.30;;;;;;;25.27;36.70;100033.16;345136;28;1294;-69
2022/05/10 00:14:06;;;;;;;10.38;7.32;;;;;;;25.30;36.74;100028.41;343284;28;1712;-69
2022/05/10 00:14:18;;;;;;;9.38;7.35;;;;;;;25.32;36.39;100030.94;343383;28;1059;-70
2022/05/10 00:14:30;;;;;;;9.70;7.20;;;;;;;25.34;36.39;100029.00;343539;28;1291;-70
2022/05/10 00:14:42;;;;;;;9.98;7.15;;;;;;;25.33;36.73;100027.28;343631;28;1086;-69
2022/05/10 00:14:54;;;;;;;9.15;7.40;;;;;;;25.31;36.92;100027.47;343447;28;1165;-69
2022/05/10 00:15:07;;;;;;;8.63;7.05;;;;;;;25.32;36.59;100025.63;343392;28;1909;-70
2022/05/10 00:15:19;;;;;;;8.65;6.95;;;;;;;25.34;36.60;100030.81;343138;28;1194;-70
2022/05/10 00:15:33;;;;;;;9.02;6.90;;;;;;;25.31;36.83;100029.25;343733;28;1288;-70
2022/05/10 00:15:47;;;;;;;9.07;7.10;;;;;;;25.33;36.76;100021.13;343993;28;1240;-70
2022/05/10 00:15:59;;;;;;;7.90;7.00;;;;;;;25.35;36.63;100025.34;342432;28;1924;-71
2022/05/10 00:16:14;;;;;;;7.95;6.90;;;;;;;25.37;36.63;100023.38;340879;29;1016;-69
2022/05/10 00:16:28;;;;;;;9.93;7.18;;;;;;;25.35;36.27;100021.84;341115;28;1314;-71
2022/05/10 00:16:42;;;;;;;10.00;7.13;;;;;;;25.35;36.43;100028.00;341219;28;1915;-69
2022/05/10 00:16:55;;;;;;;8.82;6.63;;;;;;;25.33;36.76;100021.97;342059;28;1481;-70
2022/05/10 00:17:09;;;;;;;9.10;6.50;;;;;;;25.34;36.91;100023.69;342545;28;1794;-71
2022/05/10 00:17:35;;;;;;;9.52;6.75;;;;;;;25.34;36.71;100026.34;341586;28;1890;-71
2022/05/10 00:17:48;;;;;;;9.93;6.88;;;;;;;25.35;36.54;100030.66;342408;28;1017;-70
2022/05/10 00:18:00;;;;;;;9.52;7.07;;;;;;;25.33;36.59;100027.28;342192;28;1870;-70
2022/05/10 00:18:15;;;;;;;8.32;6.75;;;;;;;25.32;36.75;100025.63;343753;28;1993;-70
2022/05/10 00:18:28;;;;;;;8.35;6.60;;;;;;;25.34;36.64;100022.84;343310;28;1805;-70
2022/05/10 00:18:41;;;;;;;8.50;6.80;;;;;;;25.34;36.61;100023.69;342640;28;1203;-70
2022/05/10 00:18:55;;;;;;;7.90;6.93;;;;;;;25.30;36.73;100023.09;343347;28;1671;-72
2022/05/10 00:19:12;;;;;;;8.10;6.65;;;;;;;25.34;36.64;100029.00;342232;28;1104;-72
2022/05/10 00:19:27;;;;;;;7.45;6.13;;;;;;;25.34;36.13;100026.34;342758;28;1133;-70
2022/05/10 00:19:39;;;;;;;7.07;6.20;;;;;;;25.38;36.38;100027.75;343495;28;1848;-69
2022/05/10 00:19:53;;;;;;;7.13;6.38;;;;;;;25.37;36.28;100023.38;343612;28;1026;-69
2022/05/10 00:20:11;;;;;;;7.40;6.45;;;;;;;25.36;36.09;100027.03;343862;28;1515;-71
2022/05/10 00:20:28;;;;;;;8.00;6.90;;;;;;;25.36;36.05;100027.03;343360;28;2978;-71
2022/05/10 00:20:42;;;;;;;8.18;6.78;;;;;;;25.39;36.04;100026.75;342357;28;1308;-70
2022/05/10 00:20:54;;;;;;;8.15;6.28;;;;;;;25.36;36.44;100027.03;342523;28;1020;-71
2022/05/10 00:21:11;;;;;;;8.32;6.43;;;;;;;25.32;36.28;100025.63;343317;28;1992;-70
2022/05/10 00:21:24;;;;;;;8.80;6.72;;;;;;;25.35;36.37;100033.31;342479;28;1029;-70
2022/05/10 00:21:36;;;;;;;7.47;6.55;;;;;;;25.34;36.22;100029.00;343419;28;1293;-70
2022/05/10 00:21:49;;;;;;;7.80;6.60;;;;;;;25.34;36.32;100029.00;343402;28;1151;-70
2022/05/10 00:22:01;;;;;;;9.35;7.07;;;;;;;25.34;36.45;100026.34;342856;28;1848;-72
2022/05/10 00:22:13;;;;;;;8.63;7.00;;;;;;;25.30;36.17;100032.91;343666;28;1929;-71
2022/05/10 00:22:26;;;;;;;8.07;6.72;;;;;;;25.31;36.38;100029.25;343233;28;1290;-71
2022/05/10 00:22:39;;;;;;;7.28;6.57;;;;;;;25.33;36.32;100032.63;342752;28;2225;-71
2022/05/10 00:22:52;;;;;;;7.50;6.80;;;;;;;25.29;36.50;100033.88;342397;28;1051;-70
2022/05/10 00:23:04;;;;;;;8.10;6.97;;;;;;;25.27;36.30;100041.16;341433;28;1822;-71
2022/05/10 00:23:16;;;;;;;8.40;6.60;;;;;;;25.28;36.26;100027.72;341893;28;1976;-71
2022/05/10 00:23:28;;;;;;;8.55;6.40;;;;;;;25.31;36.18;100029.25;342019;28;1323;-71
2022/05/10 00:23:40;;;;;;;8.23;6.40;;;;;;;25.33;36.02;100037.09;341906;28;1134;-72
2022/05/10 00:23:52;;;;;;;7.97;6.68;;;;;;;25.33;36.18;100027.28;341882;28;1789;-69
2022/05/10 00:24:05;;;;;;;8.55;7.03;;;;;;;25.35;35.96;100035.97;341195;28;2507;-70
2022/05/10 00:24:18;;;;;;;8.60;7.03;;;;;;;25.35;35.84;100030.66;342226;28;1947;-70
2022/05/10 00:24:31;;;;;;;8.95;7.03;;;;;;;25.38;36.01;100024.25;342130;28;1247;-70
2022/05/10 00:24:43;;;;;;;8.30;6.97;;;;;;;25.30;35.88;100030.25;342019;28;1924;-70
2022/05/10 00:24:55;;;;;;;8.40;6.93;;;;;;;25.31;35.92;100034.56;343148;28;2078;-70
2022/05/10 00:25:10;;;;;;;8.07;6.80;;;;;;;25.31;36.05;100024.78;343314;28;1130;-71
2022/05/10 00:25:25;;;;;;;7.93;6.65;;;;;;;25.33;35.83;100032.63;343669;28;1983;-70
2022/05/10 00:25:38;;;;;;;7.88;6.63;;;;;;;25.33;36.17;100032.63;342976;28;1841;-70
2022/05/10 00:25:50;;;;;;;8.25;6.78;;;;;;;25.31;36.12;100034.56;343678;28;1144;-70
2022/05/10 00:26:02;;;;;;;8.48;6.80;;;;;;;25.33;36.31;100031.78;342998;28;2352;-70
2022/05/10 00:26:15;;;;;;;8.55;6.75;;;;;;;25.30;36.27;100028.41;343369;28;3209;-70
2022/05/10 00:26:27;;;;;;;8.52;6.95;;;;;;;25.33;36.26;100027.28;343553;28;1365;-70
2022/05/10 00:26:40;;;;;;;8.30;6.90;;;;;;;25.32;36.08;100028.28;343281;28;1491;-70
2022/05/10 00:26:52;;;;;;;7.72;6.55;;;;;;;25.29;36.50;100032.06;343493;28;1175;-70
2022/05/10 00:27:05;;;;;;;8.70;6.68;;;;;;;25.27;36.29;100028.72;342956;28;1916;-70
2022/05/10 00:27:17;;;;;;;9.90;6.80;;;;;;;25.28;36.35;100029.53;343368;28;1982;-70
2022/05/10 00:27:29;;;;;;;9.63;6.85;;;;;;;25.27;36.14;100035.81;343262;28;1301;-70
2022/05/10 00:27:41;;;;;;;8.00;6.70;;;;;;;25.30;35.98;100038.22;343043;28;1818;-70
2022/05/10 00:27:53;;;;;;;7.20;6.50;;;;;;;25.34;36.05;100033.47;343439;28;1046;-71
2022/05/10 00:28:06;;;;;;;7.32;6.38;;;;;;;25.35;35.92;100030.66;343043;28;1909;-71
2022/05/10 00:28:18;;;;;;;8.18;6.43;;;;;;;25.32;35.97;100030.94;342914;28;2031;-73
2022/05/10 00:28:30;;;;;;;8.98;6.63;;;;;;;25.30;35.97;100032.91;342873;28;2979;-71
2022/05/10 00:28:42;;;;;;;8.68;6.75;;;;;;;25.31;36.00;100029.25;342870;28;1206;-71
2022/05/10 00:28:54;;;;;;;9.55;7.03;;;;;;;25.31;35.72;100037.22;342901;28;1857;-71
2022/05/10 00:29:06;;;;;;;10.85;7.18;;;;;;;25.29;35.56;100032.06;343662;28;2044;-69
2022/05/10 00:29:18;;;;;;;10.48;7.03;;;;;;;25.31;35.64;100034.56;344042;28;1370;-69
2022/05/10 00:29:31;;;;;;;9.43;6.47;;;;;;;25.33;35.84;100032.63;343777;28;1361;-69
2022/05/10 00:29:43;;;;;;;7.03;5.90;;;;;;;25.31;35.73;100039.91;343784;28;1255;-70
2022/05/10 00:29:55;;;;;;;6.82;5.85;;;;;;;25.34;35.66;100029.00;343470;28;1914;-71
2022/05/10 00:30:08;;;;;;;8.15;6.10;;;;;;;25.33;35.60;100035.28;343207;28;1945;-70
2022/05/10 00:30:21;;;;;;;8.95;6.10;;;;;;;25.36;35.71;100037.69;343785;28;1598;-71
2022/05/10 00:30:34;;;;;;;8.73;6.07;;;;;;;25.37;35.69;100028.72;344024;28;1877;-70
2022/05/10 00:30:46;;;;;;;9.25;6.20;;;;;;;25.30;35.76;100032.91;343347;28;1118;-70
2022/05/10 00:30:58;;;;;;;11.82;6.70;;;;;;;25.26;35.68;100036.81;343418;28;1227;-71
2022/05/10 00:31:11;;;;;;;11.65;6.93;;;;;;;25.25;35.61;100029.78;343284;28;1239;-71
2022/05/10 00:31:23;;;;;;;9.85;7.03;;;;;;;25.26;35.59;100039.47;343517;28;1113;-71
2022/05/10 00:31:36;;;;;;;8.35;6.70;;;;;;;25.26;35.80;100026.19;343816;28;1046;-71
2022/05/10 00:31:48;;;;;;;8.00;6.40;;;;;;;25.24;36.37;100033.44;343394;28;1158;-72
2022/05/10 00:32:00;;;;;;;7.93;6.63;;;;;;;25.28;35.86;100035.69;343340;28;2271;-72
2022/05/10 00:32:12;;;;;;;8.55;7.18;;;;;;;25.26;36.01;100037.66;342884;28;1914;-70
2022/05/10 00:32:29;;;;;;;8.85;7.40;;;;;;;25.27;35.95;100023.38;343226;28;1887;-70
2022/05/10 00:32:41;;;;;;;8.63;7.03;;;;;;;25.26;35.82;100031.50;343150;28;2093;-70
2022/05/10 00:32:53;;;;;;;7.90;6.72;;;;;;;25.28;35.75;100032.19;343551;28;1322;-70
2022/05/10 00:33:06;;;;;;;9.73;6.45;;;;;;;25.27;35.91;100027.84;343185;28;2032;-70
2022/05/10 00:33:24;;;;;;;9.65;6.28;;;;;;;25.30;35.71;100028.41;343718;28;2106;-69
2022/05/10 00:33:37;;;;;;;7.32;6.50;;;;;;;25.26;35.80;100032.31;342298;28;1001;-69
2022/05/10 00:33:49;;;;;;;7.93;6.85;;;;;;;25.26;36.19;100028.84;342179;28;1590;-69
2022/05/10 00:34:03;;;;;;;8.70;6.78;;;;;;;25.27;35.73;100030.50;342369;28;1720;-69
2022/05/10 00:34:16;;;;;;;9.20;6.72;;;;;;;25.25;35.92;100028.00;342851;28;1989;-69
2022/05/10 00:34:29;;;;;;;8.77;6.78;;;;;;;25.27;35.65;100027.84;343277;28;1398;-69
2022/05/10 00:34:43;;;;;;;7.35;6.60;;;;;;;25.24;35.75;100028.13;344166;28;2175;-73
2022/05/10 00:34:55;;;;;;;7.32;6.43;;;;;;;25.25;36.04;100029.78;343076;28;1772;-71
2022/05/10 00:35:19;;;;;;;8.45;6.45;;;;;;;25.27;36.14;100028.72;343439;28;1015;-71
2022/05/10 00:35:33;;;;;;;11.23;6.65;;;;;;;25.27;36.37;100027.84;341726;28;1338;-69
2022/05/10 00:35:45;;;;;;;11.68;6.97;;;;;;;25.26;36.50;100032.31;341314;28;1865;-69
2022/05/10 00:36:00;;;;;;;10.35;7.40;;;;;;;25.29;36.54;100033.88;341276;28;3513;-70
2022/05/10 00:36:15;;;;;;;10.07;7.38;;;;;;;25.29;36.49;100033.88;341973;28;1615;-69
2022/05/10 00:36:27;;;;;;;7.75;6.93;;;;;;;25.28;36.54;100029.53;341178;28;1271;-69
2022/05/10 00:36:39;;;;;;;8.25;7.13;;;;;;;25.28;36.50;100029.53;342131;28;1548;-70
2022/05/10 00:36:52;;;;;;;8.82;7.22;;;;;;;25.24;36.59;100028.97;342374;28;1033;-69
2022/05/10 00:37:04;;;;;;;8.27;7.35;;;;;;;25.26;36.61;100032.31;341747;28;2000;-69
2022/05/10 00:37:20;;;;;;;8.50;7.13;;;;;;;25.28;36.44;100032.19;342373;28;2106;-70
2022/05/10 00:37:33;;;;;;;11.43;6.90;;;;;;;25.25;36.20;100029.78;341968;28;1929;-69
2022/05/10 00:37:48;;;;;;;12.15;6.93;;;;;;;25.26;36.21;100031.50;343381;28;2301;-68
2022/05/10 00:38:03;;;;;;;9.02;6.70;;;;;;;25.27;36.46;100030.50;342124;28;1899;-70
2022/05/10 00:38:15;;;;;;;8.45;6.90;;;;;;;25.31;36.17;100031.91;343360;28;2037;-72
2022/05/10 00:38:34;;;;;;;8.45;6.93;;;;;;;25.34;36.12;100033.47;343271;28;1241;-71
2022/05/10 00:38:46;;;;;;;7.80;6.90;;;;;;;25.33;36.17;100029.13;343881;28;1307;-72
2022/05/10 00:38:59;;;;;;;8.48;6.90;;;;;;;25.33;36.44;100026.47;343167;28;1849;-72
2022/05/10 00:39:12;;;;;;;10.38;6.95;;;;;;;25.34;36.11;100029.00;343245;28;1905;-71
2022/05/10 00:39:24;;;;;;;10.35;7.03;;;;;;;25.35;36.29;100030.66;342536;28;1239;-71
2022/05/10 00:39:37;;;;;;;9.18;7.07;;;;;;;25.34;36.55;100034.31;342280;28;1018;-71
2022/05/10 00:39:49;;;;;;;7.88;7.03;;;;;;;25.33;36.58;100032.63;342543;28;1023;-72
2022/05/10 00:40:02;;;;;;;7.80;7.00;;;;;;;25.32;36.39;100030.94;342027;28;1794;-72
2022/05/10 00:40:18;;;;;;;7.75;6.75;;;;;;;25.31;36.37;100029.25;343337;28;1709;-71
2022/05/10 00:40:33;;;;;;;8.27;6.50;;;;;;;25.29;36.06;100020.56;344119;28;1279;-69
2022/05/10 00:40:45;;;;;;;9.70;6.90;;;;;;;25.30;36.46;100023.09;343668;28;1222;-69
2022/05/10 00:41:06;;;;;;;10.88;7.35;;;;;;;25.31;36.15;100026.59;343354;28;1784;-69
2022/05/10 00:41:51;;;;;;;9.93;6.90;;;;;;;25.31;36.04;100023.94;343435;28;1767;-70
2022/05/10 00:42:12;;;;;;;10.15;6.72;;;;;;;25.32;36.04;100020.31;342646;28;1851;-71
2022/05/10 00:42:33;;;;;;;8.43;6.50;;;;;;;25.33;36.29;100027.28;342332;28;1073;-69
2022/05/10 00:43:06;;;;;;;9.98;7.03;;;;;;;25.38;36.04;100019.75;342474;28;1069;-72
2022/05/10 00:43:23;;;;;;;8.48;6.80;;;;;;;25.39;35.35;100026.75;343364;28;2106;-71
2022/05/10 00:43:40;;;;;;;8.63;6.88;;;;;;;25.35;35.67;100025.34;343392;28;1108;-68
2022/05/10 00:43:58;;;;;;;9.73;7.00;;;;;;;25.31;35.41;100023.94;342974;28;2168;-70
2022/05/10 00:44:33;;;;;;;9.98;6.95;;;;;;;25.30;35.88;100016.94;343342;28;1784;-70
2022/05/10 00:44:51;;;;;;;9.80;6.90;;;;;;;25.29;36.02;100025.88;343593;28;2194;-71
2022/05/10 00:45:08;;;;;;;8.80;6.95;;;;;;;25.29;36.07;100020.56;343303;28;1052;-71
2022/05/10 00:45:51;;;;;;;9.52;6.68;;;;;;;25.27;36.15;100022.53;343291;28;1210;-71
2022/05/10 00:46:12;;;;;;;11.25;6.85;;;;;;;25.27;36.21;100022.53;342082;28;1876;-72
2022/05/10 00:46:31;;;;;;;8.07;6.57;;;;;;;25.30;36.12;100019.59;340612;28;1921;-73
2022/05/10 00:46:46;;;;;;;8.00;6.50;;;;;;;25.28;35.93;100013.56;340664;29;1036;-70
2022/05/10 00:47:04;;;;;;;8.20;6.43;;;;;;;25.31;35.87;100023.94;340327;29;2371;-69
2022/05/10 00:47:16;;;;;;;9.32;6.85;;;;;;;25.31;35.72;100023.94;340630;29;2008;-72
2022/05/10 00:47:44;;;;;;;9.77;6.88;;;;;;;25.30;35.58;100017.78;339825;28;2050;-72
2022/05/10 00:48:05;;;;;;;8.68;7.03;;;;;;;25.22;35.77;100014.97;339617;29;1132;-70
2022/05/10 00:48:37;;;;;;;9.02;7.38;;;;;;;25.23;35.82;100015.78;340986;28;2069;-70
2022/05/10 00:48:59;;;;;;;9.90;6.88;;;;;;;25.20;36.04;100018.72;342087;28;1018;-70
2022/05/10 00:49:16;;;;;;;7.80;6.70;;;;;;;25.16;35.96;100019.94;342346;28;1706;-70
2022/05/10 00:49:57;;;;;;;7.57;6.72;;;;;;;25.12;36.34;100014.06;342747;28;1326;-70
2022/05/10 00:50:36;;;;;;;7.32;6.60;;;;;;;25.08;36.35;100018.78;342973;28;1966;-70
2022/05/10 00:51:11;;;;;;;9.85;6.88;;;;;;;25.05;36.03;100008.44;343375;28;1249;-71
2022/05/10 00:51:28;;;;;;;7.60;6.65;;;;;;;25.02;36.08;100013.19;342298;28;2047;-70
2022/05/10 00:51:50;;;;;;;7.68;6.88;;;;;;;25.03;36.12;100013.06;342771;28;1878;-71
2022/05/10 00:52:39;;;;;;;9.00;6.88;;;;;;;24.98;36.30;100012.59;343189;28;1818;-70
2022/05/10 00:53:04;;;;;;;7.78;6.97;;;;;;;24.97;36.28;100012.72;342377;28;1084;-70
2022/05/10 00:53:27;;;;;;;7.70;6.90;;;;;;;24.97;36.02;100010.94;343223;28;1973;-71
2022/05/10 00:53:53;;;;;;;7.50;6.80;;;;;;;24.95;36.30;100018.19;341303;28;1553;-73
2022/05/10 00:54:41;;;;;;;8.60;6.72;;;;;;;24.90;36.32;100007.09;342404;28;3033;-70
2022/05/10 00:55:16;;;;;;;8.55;6.93;;;;;;;24.97;36.03;100010.06;339526;28;1199;-69
2022/05/10 00:55:38;;;;;;;7.40;6.57;;;;;;;24.91;36.21;100012.31;343001;28;1281;-70
2022/05/10 00:56:00;;;;;;;7.75;6.75;;;;;;;24.93;36.35;100012.13;343526;28;1019;-71
2022/05/10 00:56:21;;;;;;;9.20;6.95;;;;;;;24.92;36.37;100010.47;343313;28;1753;-71
2022/05/10 00:57:08;;;;;;;7.60;6.80;;;;;;;24.97;36.17;100013.59;343237;28;1300;-72
2022/05/10 00:57:31;;;;;;;8.07;7.07;;;;;;;25.01;35.91;100011.47;338156;29;2153;-70
2022/05/10 00:57:59;;;;;;;8.85;7.15;;;;;;;25.02;35.86;100014.00;338201;29;1074;-69
2022/05/10 00:58:26;;;;;;;9.45;6.85;;;;;;;24.98;35.80;100011.75;338827;29;1973;-69
2022/05/10 00:58:56;;;;;;;7.25;6.47;;;;;;;24.96;35.66;100014.56;341055;28;1100;-71
2022/05/10 00:59:20;;;;;;;7.60;6.53;;;;;;;24.98;35.94;100007.28;343452;28;1694;-69
2022/05/10 00:59:41;;;;;;;8.63;6.45;;;;;;;24.95;36.42;100015.53;343142;28;1351;-70
2022/05/10 01:00:08;;;;;;;8.73;6.97;;;;;;;24.97;36.23;100005.63;342145;28;1063;-70
2022/05/10 01:00:26;;;;;;;8.65;6.80;;;;;;;24.99;36.00;100008.97;342929;28;2217;-70
2022/05/10 01:00:40;;;;;;;7.65;6.85;;;;;;;25.02;36.06;100014.00;342166;28;1017;-69
2022/05/10 01:00:55;;;;;;;7.60;6.80;;;;;;;24.96;36.16;100008.41;342208;28;1096;-69
2022/05/10 01:01:12;;;;;;;7.75;6.95;;;;;;;24.96;36.20;100009.22;342841;28;2305;-71
2022/05/10 01:01:31;;;;;;;7.68;6.80;;;;;;;24.91;36.34;100011.44;343677;28;1281;-70
2022/05/10 01:01:49;;;;;;;8.30;6.88;;;;;;;24.88;36.49;100011.72;342247;28;1083;-71
2022/05/10 01:02:11;;;;;;;9.25;7.38;;;;;;;24.88;36.70;100017.03;342539;28;1881;-71
2022/05/10 01:02:30;;;;;;;10.45;7.32;;;;;;;24.94;36.42;100011.19;342785;28;1631;-71
2022/05/10 01:03:03;;;;;;;10.93;7.30;;;;;;;24.95;36.42;100007.56;342307;28;2125;-70
2022/05/10 01:03:24;;;;;;;11.23;6.95;;;;;;;24.96;36.43;100011.88;342756;28;1958;-70
2022/05/10 01:03:41;;;;;;;8.70;6.60;;;;;;;24.97;36.43;100010.94;341862;28;1177;-70
2022/05/10 01:04:01;;;;;;;7.82;6.68;;;;;;;24.88;36.21;100011.72;342202;28;2138;-70
2022/05/10 01:04:27;;;;;;;7.65;6.72;;;;;;;24.85;36.39;100006.66;341944;28;1848;-71
2022/05/10 01:04:46;;;;;;;8.38;6.75;;;;;;;24.84;36.42;100012.97;342112;28;1180;-71
2022/05/10 01:05:08;;;;;;;8.25;6.47;;;;;;;24.88;36.40;100007.22;341738;28;2475;-70
2022/05/10 01:05:39;;;;;;;8.93;6.90;;;;;;;24.86;36.76;100005.69;343324;28;1092;-70
2022/05/10 01:06:07;;;;;;;8.68;7.03;;;;;;;24.82;36.82;100006.94;343101;28;1278;-72
2022/05/10 01:06:32;;;;;;;7.88;7.07;;;;;;;24.85;36.89;100007.53;341199;28;2065;-70
2022/05/10 01:06:57;;;;;;;8.60;7.13;;;;;;;24.88;36.70;100006.41;342387;28;1088;-72
2022/05/10 01:07:37;;;;;;;7.97;7.10;;;;;;;24.89;36.69;100002.75;341795;28;1812;-72
2022/05/10 01:08:01;;;;;;;8.98;7.13;;;;;;;24.89;36.61;100010.72;341098;29;1584;-70
2022/05/10 01:08:27;;;;;;;9.70;6.82;;;;;;;24.92;36.77;100008.66;341635;28;2052;-71
2022/05/10 01:08:58;;;;;;;8.77;7.10;;;;;;;24.94;37.06;99997.88;343079;28;1895;-72
2022/05/10 01:09:17;;;;;;;8.95;7.07;;;;;;;24.99;36.57;100002.78;342062;28;1056;-70
2022/05/10 01:09:56;;;;;;;8.93;7.03;;;;;;;24.94;36.65;99999.72;342860;28;1302;-70
2022/05/10 01:10:17;;;;;;;8.65;6.93;;;;;;;24.98;36.29;99996.63;343186;28;2218;-71
2022/05/10 01:10:48;;;;;;;8.50;6.82;;;;;;;25.02;36.14;99995.41;342355;28;3659;-69
2022/05/10 01:11:05;;;;;;;8.73;6.82;;;;;;;25.06;36.22;99994.16;343169;28;1947;-69
2022/05/10 01:11:28;;;;;;;9.82;7.22;;;;;;;25.07;36.05;99994.97;341940;28;1667;-70
2022/05/10 01:11:50;;;;;;;9.43;6.97;;;;;;;25.07;35.98;99989.66;343094;28;1920;-70
2022/05/10 01:12:14;;;;;;;8.88;6.55;;;;;;;25.07;35.96;99995.84;343026;28;1983;-70
2022/05/10 01:12:36;;;;;;;7.55;6.05;;;;;;;25.03;35.82;99994.44;342145;28;1397;-70
2022/05/10 01:12:53;;;;;;;8.77;6.57;;;;;;;25.04;35.96;99995.28;343352;28;1052;-71
2022/05/10 01:13:13;;;;;;;8.38;6.72;;;;;;;25.02;35.74;99998.06;342914;28;2010;-71
2022/05/10 01:13:32;;;;;;;8.65;7.03;;;;;;;25.01;36.03;99991.06;342535;28;2100;-72
2022/05/10 01:13:56;;;;;;;8.27;7.10;;;;;;;24.97;36.61;99989.66;343128;28;1200;-71
2022/05/10 01:14:15;;;;;;;9.35;7.38;;;;;;;24.99;36.20;99992.16;343206;28;1916;-71
2022/05/10 01:14:35;;;;;;;9.30;7.13;;;;;;;24.99;36.19;99995.69;342365;28;1835;-72
2022/05/10 01:14:47;;;;;;;8.70;7.25;;;;;;;25.01;36.05;99991.06;342915;28;1110;-72
2022/05/10 01:15:06;;;;;;;8.57;7.15;;;;;;;24.98;36.31;99990.50;342765;28;1749;-71
2022/05/10 01:15:22;;;;;;;8.95;7.05;;;;;;;25.01;36.14;99995.53;342826;28;1985;-71
2022/05/10 01:15:35;;;;;;;8.25;6.43;;;;;;;24.97;36.21;99997.63;343357;28;1320;-70
2022/05/10 01:16:09;;;;;;;8.13;6.03;;;;;;;24.98;36.19;99991.31;342086;28;1099;-71
2022/05/10 01:16:23;;;;;;;8.05;7.25;;;;;;;24.99;36.29;99992.16;341793;28;2103;-71
2022/05/10 01:16:35;;;;;;;8.23;7.35;;;;;;;24.99;36.16;99987.69;340878;29;1018;-71
2022/05/10 01:16:49;;;;;;;7.90;7.05;;;;;;;25.01;36.05;99991.06;341104;29;1251;-71
2022/05/10 01:17:01;;;;;;;8.30;6.78;;;;;;;25.02;36.31;99992.72;340785;28;1889;-71
2022/05/10 01:17:13;;;;;;;9.73;7.05;;;;;;;25.02;36.10;99998.06;341011;28;2023;-71
2022/05/10 01:17:25;;;;;;;9.18;7.00;;;;;;;25.00;36.21;99989.38;340578;28;1403;-71
2022/05/10 01:17:40;;;;;;;8.35;6.78;;;;;;;25.03;36.04;99996.22;341576;28;2037;-70
2022/05/10 01:17:58;;;;;;;8.48;6.80;;;;;;;25.00;36.09;99989.38;342005;28;1108;-70
2022/05/10 01:18:10;;;;;;;8.60;7.03;;;;;;;25.00;36.39;99994.69;343263;28;1830;-70
2022/05/10 01:18:23;;;;;;;9.05;7.05;;;;;;;25.00;36.42;99989.38;342796;28;1831;-69
2022/05/10 01:18:36;;;;;;;9.30;7.20;;;;;;;25.02;36.41;99994.56;343230;28;2073;-70
2022/05/10 01:18:52;;;;;;;9.02;7.22;;;;;;;25.02;36.11;99992.72;342245;28;1023;-71
2022/05/10 01:19:06;;;;;;;7.88;6.95;;;;;;;25.02;36.47;99983.94;342479;28;1861;-71
2022/05/10 01:19:19;;;;;;;8.27;6.90;;;;;;;25.02;36.24;99984.75;343450;28;2033;-71
2022/05/10 01:19:31;;;;;;;8.20;7.10;;;;;;;25.02;36.34;99991.91;343379;28;1345;-70
2022/05/10 01:19:43;;;;;;;8.30;7.07;;;;;;;25.03;36.26;99991.78;343473;28;1202;-70
2022/05/10 01:19:55;;;;;;;8.02;7.22;;;;;;;25.03;36.08;99989.13;343795;28;1266;-70
2022/05/10 01:20:09;;;;;;;8.98;7.32;;;;;;;24.98;36.31;99982.50;342679;28;2028;-71